sensor_id;sensor_type;location;lat;lon;timestamp;P1;durP1;ratioP1;P2;durP2;ratioP2
55489;SDS011;44029;52.956;4.772;2023-09-18T00:01:47;74.07;;;28.95;;
55489;SDS011;44029;52.956;4.772;2023-09-18T00:04:13;64.50;;;28.35;;
55489;SDS011;44029;52.956;4.772;2023-09-18T00:06:38;68.10;;;25.27;;
55489;SDS011;44029;52.956;4.772;2023-09-18T00:09:04;79.40;;;29.40;;
55489;SDS011;44029;52.956;4.772;2023-09-18T00:11:29;69.80;;;26.63;;
55489;SDS011;44029;52.956;4.772;2023-09-18T00:13:55;69.18;;;27.98;;
55489;SDS011;44029;52.956;4.772;2023-09-18T00:16:20;75.03;;;29.60;;
55489;SDS011;44029;52.956;4.772;2023-09-18T00:18:45;71.28;;;26.83;;
55489;SDS011;44029;52.956;4.772;2023-09-18T00:21:11;68.93;;;26.48;;
55489;SDS011;44029;52.956;4.772;2023-09-18T00:23:37;79.68;;;29.60;;
55489;SDS011;44029;52.956;4.772;2023-09-18T00:26:03;63.63;;;26.80;;
55489;SDS011;44029;52.956;4.772;2023-09-18T00:28:28;64.53;;;26.70;;
55489;SDS011;44029;52.956;4.772;2023-09-18T00:30:54;75.88;;;29.83;;
55489;SDS011;44029;52.956;4.772;2023-09-18T00:33:19;65.97;;;26.00;;
55489;SDS011;44029;52.956;4.772;2023-09-18T00:35:51;70.40;;;25.45;;
55489;SDS011;44029;52.956;4.772;2023-09-18T00:40:42;62.03;;;25.55;;
55489;SDS011;44029;52.956;4.772;2023-09-18T00:43:08;60.42;;;27.02;;
55489;SDS011;44029;52.956;4.772;2023-09-18T00:45:34;47.17;;;20.17;;
55489;SDS011;44029;52.956;4.772;2023-09-18T00:48:03;51.60;;;22.75;;
55489;SDS011;44029;52.956;4.772;2023-09-18T00:50:28;71.82;;;27.70;;
55489;SDS011;44029;52.956;4.772;2023-09-18T00:52:54;69.97;;;29.95;;
55489;SDS011;44029;52.956;4.772;2023-09-18T00:55:19;75.82;;;29.08;;
55489;SDS011;44029;52.956;4.772;2023-09-18T00:57:45;61.20;;;24.63;;
55489;SDS011;44029;52.956;4.772;2023-09-18T01:00:12;64.28;;;26.33;;
55489;SDS011;44029;52.956;4.772;2023-09-18T01:02:40;64.72;;;28.17;;
55489;SDS011;44029;52.956;4.772;2023-09-18T01:05:06;70.93;;;30.10;;
55489;SDS011;44029;52.956;4.772;2023-09-18T01:07:31;71.53;;;29.08;;
55489;SDS011;44029;52.956;4.772;2023-09-18T01:09:57;72.13;;;29.75;;
55489;SDS011;44029;52.956;4.772;2023-09-18T01:12:32;76.03;;;30.35;;
55489;SDS011;44029;52.956;4.772;2023-09-18T01:15:02;73.82;;;29.73;;
55489;SDS011;44029;52.956;4.772;2023-09-18T01:17:36;67.80;;;27.77;;
55489;SDS011;44029;52.956;4.772;2023-09-18T01:20:03;66.53;;;27.08;;
55489;SDS011;44029;52.956;4.772;2023-09-18T01:22:30;77.30;;;28.90;;
55489;SDS011;44029;52.956;4.772;2023-09-18T01:24:57;70.68;;;30.08;;
55489;SDS011;44029;52.956;4.772;2023-09-18T01:27:22;74.32;;;31.05;;
55489;SDS011;44029;52.956;4.772;2023-09-18T01:29:48;88.82;;;31.88;;
55489;SDS011;44029;52.956;4.772;2023-09-18T01:32:14;78.07;;;32.13;;
55489;SDS011;44029;52.956;4.772;2023-09-18T01:34:41;74.53;;;31.38;;
55489;SDS011;44029;52.956;4.772;2023-09-18T01:37:11;73.35;;;30.67;;
55489;SDS011;44029;52.956;4.772;2023-09-18T01:39:37;71.97;;;28.33;;
55489;SDS011;44029;52.956;4.772;2023-09-18T01:42:04;68.35;;;30.55;;
55489;SDS011;44029;52.956;4.772;2023-09-18T01:44:31;72.13;;;30.80;;
55489;SDS011;44029;52.956;4.772;2023-09-18T01:47:06;70.35;;;28.63;;
55489;SDS011;44029;52.956;4.772;2023-09-18T01:49:33;60.13;;;26.45;;
55489;SDS011;44029;52.956;4.772;2023-09-18T01:52:00;78.53;;;32.53;;
55489;SDS011;44029;52.956;4.772;2023-09-18T01:54:25;66.30;;;27.48;;
55489;SDS011;44029;52.956;4.772;2023-09-18T01:56:54;70.10;;;30.73;;
55489;SDS011;44029;52.956;4.772;2023-09-18T01:59:20;58.85;;;27.15;;
55489;SDS011;44029;52.956;4.772;2023-09-18T02:01:47;65.68;;;29.25;;
55489;SDS011;44029;52.956;4.772;2023-09-18T02:04:13;58.50;;;25.88;;
55489;SDS011;44029;52.956;4.772;2023-09-18T02:06:38;63.13;;;27.70;;
55489;SDS011;44029;52.956;4.772;2023-09-18T02:09:04;63.92;;;27.45;;
55489;SDS011;44029;52.956;4.772;2023-09-18T02:11:30;60.15;;;26.85;;
55489;SDS011;44029;52.956;4.772;2023-09-18T02:13:55;61.47;;;29.05;;
55489;SDS011;44029;52.956;4.772;2023-09-18T02:16:21;58.33;;;26.27;;
55489;SDS011;44029;52.956;4.772;2023-09-18T02:18:47;54.38;;;24.38;;
55489;SDS011;44029;52.956;4.772;2023-09-18T02:21:18;58.75;;;26.80;;
55489;SDS011;44029;52.956;4.772;2023-09-18T02:23:45;59.88;;;27.70;;
55489;SDS011;44029;52.956;4.772;2023-09-18T02:26:10;54.22;;;25.50;;
55489;SDS011;44029;52.956;4.772;2023-09-18T02:28:36;60.58;;;26.73;;
55489;SDS011;44029;52.956;4.772;2023-09-18T02:31:01;55.85;;;25.67;;
55489;SDS011;44029;52.956;4.772;2023-09-18T02:33:27;56.50;;;26.38;;
55489;SDS011;44029;52.956;4.772;2023-09-18T02:35:53;49.60;;;22.80;;
55489;SDS011;44029;52.956;4.772;2023-09-18T02:38:18;44.08;;;25.27;;
55489;SDS011;44029;52.956;4.772;2023-09-18T02:40:44;47.78;;;22.98;;
55489;SDS011;44029;52.956;4.772;2023-09-18T02:43:09;44.55;;;23.20;;
55489;SDS011;44029;52.956;4.772;2023-09-18T02:45:34;46.55;;;22.92;;
55489;SDS011;44029;52.956;4.772;2023-09-18T02:48:00;43.13;;;23.60;;
55489;SDS011;44029;52.956;4.772;2023-09-18T02:50:25;38.08;;;21.83;;
55489;SDS011;44029;52.956;4.772;2023-09-18T02:52:50;45.42;;;23.33;;
55489;SDS011;44029;52.956;4.772;2023-09-18T02:55:16;44.10;;;24.70;;
55489;SDS011;44029;52.956;4.772;2023-09-18T02:57:42;44.22;;;23.73;;
55489;SDS011;44029;52.956;4.772;2023-09-18T03:00:07;43.28;;;23.52;;
55489;SDS011;44029;52.956;4.772;2023-09-18T03:02:33;46.58;;;23.02;;
55489;SDS011;44029;52.956;4.772;2023-09-18T03:04:59;51.03;;;25.20;;
55489;SDS011;44029;52.956;4.772;2023-09-18T03:07:24;38.60;;;20.95;;
55489;SDS011;44029;52.956;4.772;2023-09-18T03:09:49;51.30;;;25.60;;
55489;SDS011;44029;52.956;4.772;2023-09-18T03:12:15;46.80;;;24.30;;
55489;SDS011;44029;52.956;4.772;2023-09-18T03:14:40;43.10;;;23.83;;
55489;SDS011;44029;52.956;4.772;2023-09-18T03:17:05;44.88;;;22.60;;
55489;SDS011;44029;52.956;4.772;2023-09-18T03:19:31;41.50;;;24.02;;
55489;SDS011;44029;52.956;4.772;2023-09-18T03:21:56;44.17;;;23.77;;
55489;SDS011;44029;52.956;4.772;2023-09-18T03:24:21;40.30;;;23.27;;
55489;SDS011;44029;52.956;4.772;2023-09-18T03:26:47;45.53;;;22.75;;
55489;SDS011;44029;52.956;4.772;2023-09-18T03:29:14;43.05;;;22.65;;
55489;SDS011;44029;52.956;4.772;2023-09-18T03:31:39;44.45;;;23.38;;
55489;SDS011;44029;52.956;4.772;2023-09-18T03:34:05;43.35;;;23.95;;
55489;SDS011;44029;52.956;4.772;2023-09-18T03:36:30;43.45;;;23.23;;
55489;SDS011;44029;52.956;4.772;2023-09-18T03:38:56;39.45;;;21.45;;
55489;SDS011;44029;52.956;4.772;2023-09-18T03:41:21;42.88;;;24.10;;
55489;SDS011;44029;52.956;4.772;2023-09-18T03:43:46;35.05;;;21.98;;
55489;SDS011;44029;52.956;4.772;2023-09-18T03:46:12;35.40;;;21.02;;
55489;SDS011;44029;52.956;4.772;2023-09-18T03:48:37;38.88;;;21.60;;
55489;SDS011;44029;52.956;4.772;2023-09-18T03:51:06;31.60;;;19.73;;
55489;SDS011;44029;52.956;4.772;2023-09-18T03:53:34;31.48;;;17.92;;
55489;SDS011;44029;52.956;4.772;2023-09-18T03:56:01;26.88;;;17.95;;
55489;SDS011;44029;52.956;4.772;2023-09-18T03:58:26;31.20;;;17.48;;
55489;SDS011;44029;52.956;4.772;2023-09-18T04:00:52;33.15;;;18.13;;
55489;SDS011;44029;52.956;4.772;2023-09-18T04:03:17;27.63;;;17.35;;
55489;SDS011;44029;52.956;4.772;2023-09-18T04:05:43;29.23;;;17.38;;
55489;SDS011;44029;52.956;4.772;2023-09-18T04:08:09;27.15;;;16.52;;
55489;SDS011;44029;52.956;4.772;2023-09-18T04:10:34;25.45;;;16.50;;
55489;SDS011;44029;52.956;4.772;2023-09-18T04:12:59;24.35;;;16.52;;
55489;SDS011;44029;52.956;4.772;2023-09-18T04:15:25;24.73;;;17.00;;
55489;SDS011;44029;52.956;4.772;2023-09-18T04:17:52;26.27;;;16.48;;
55489;SDS011;44029;52.956;4.772;2023-09-18T04:20:18;31.27;;;15.15;;
55489;SDS011;44029;52.956;4.772;2023-09-18T04:22:44;29.50;;;16.20;;
55489;SDS011;44029;52.956;4.772;2023-09-18T04:25:14;22.58;;;15.00;;
55489;SDS011;44029;52.956;4.772;2023-09-18T04:27:40;25.23;;;16.05;;
55489;SDS011;44029;52.956;4.772;2023-09-18T04:30:06;21.48;;;14.75;;
55489;SDS011;44029;52.956;4.772;2023-09-18T04:32:34;27.17;;;16.48;;
55489;SDS011;44029;52.956;4.772;2023-09-18T04:35:00;25.73;;;16.17;;
55489;SDS011;44029;52.956;4.772;2023-09-18T04:37:26;27.35;;;15.85;;
55489;SDS011;44029;52.956;4.772;2023-09-18T04:39:51;26.27;;;16.05;;
55489;SDS011;44029;52.956;4.772;2023-09-18T04:42:17;25.02;;;15.52;;
55489;SDS011;44029;52.956;4.772;2023-09-18T04:44:43;24.48;;;15.25;;
55489;SDS011;44029;52.956;4.772;2023-09-18T04:47:09;27.27;;;15.35;;
55489;SDS011;44029;52.956;4.772;2023-09-18T04:49:34;26.13;;;16.42;;
55489;SDS011;44029;52.956;4.772;2023-09-18T04:51:59;23.00;;;14.73;;
55489;SDS011;44029;52.956;4.772;2023-09-18T04:54:25;23.60;;;15.57;;
55489;SDS011;44029;52.956;4.772;2023-09-18T04:56:50;24.33;;;15.98;;
55489;SDS011;44029;52.956;4.772;2023-09-18T04:59:15;26.10;;;16.08;;
55489;SDS011;44029;52.956;4.772;2023-09-18T05:01:41;27.00;;;16.85;;
55489;SDS011;44029;52.956;4.772;2023-09-18T05:04:07;33.60;;;16.80;;
55489;SDS011;44029;52.956;4.772;2023-09-18T05:06:33;30.17;;;17.60;;
55489;SDS011;44029;52.956;4.772;2023-09-18T05:08:58;26.02;;;17.00;;
55489;SDS011;44029;52.956;4.772;2023-09-18T05:11:24;28.50;;;16.85;;
55489;SDS011;44029;52.956;4.772;2023-09-18T05:13:49;32.17;;;17.67;;
55489;SDS011;44029;52.956;4.772;2023-09-18T05:16:15;30.08;;;17.15;;
55489;SDS011;44029;52.956;4.772;2023-09-18T05:18:41;28.70;;;16.17;;
55489;SDS011;44029;52.956;4.772;2023-09-18T05:21:06;25.63;;;14.85;;
55489;SDS011;44029;52.956;4.772;2023-09-18T05:23:32;24.80;;;15.55;;
55489;SDS011;44029;52.956;4.772;2023-09-18T05:25:57;23.73;;;14.73;;
55489;SDS011;44029;52.956;4.772;2023-09-18T05:28:24;27.98;;;15.88;;
55489;SDS011;44029;52.956;4.772;2023-09-18T05:30:50;31.33;;;15.68;;
55489;SDS011;44029;52.956;4.772;2023-09-18T05:33:15;27.25;;;13.63;;
55489;SDS011;44029;52.956;4.772;2023-09-18T05:35:41;21.90;;;13.48;;
55489;SDS011;44029;52.956;4.772;2023-09-18T05:38:08;24.60;;;13.77;;
55489;SDS011;44029;52.956;4.772;2023-09-18T05:40:38;32.63;;;13.55;;
55489;SDS011;44029;52.956;4.772;2023-09-18T05:43:04;26.13;;;14.45;;
55489;SDS011;44029;52.956;4.772;2023-09-18T05:45:30;27.63;;;14.35;;
55489;SDS011;44029;52.956;4.772;2023-09-18T05:47:57;37.72;;;16.27;;
55489;SDS011;44029;52.956;4.772;2023-09-18T05:50:28;33.92;;;13.75;;
55489;SDS011;44029;52.956;4.772;2023-09-18T05:52:55;38.42;;;15.80;;
55489;SDS011;44029;52.956;4.772;2023-09-18T05:55:24;37.35;;;14.93;;
55489;SDS011;44029;52.956;4.772;2023-09-18T05:57:50;28.77;;;12.32;;
55489;SDS011;44029;52.956;4.772;2023-09-18T06:00:15;23.23;;;10.00;;
55489;SDS011;44029;52.956;4.772;2023-09-18T06:02:42;16.27;;;7.47;;
55489;SDS011;44029;52.956;4.772;2023-09-18T06:05:10;16.75;;;6.53;;
55489;SDS011;44029;52.956;4.772;2023-09-18T06:07:38;17.98;;;6.13;;
55489;SDS011;44029;52.956;4.772;2023-09-18T06:10:03;16.13;;;6.57;;
55489;SDS011;44029;52.956;4.772;2023-09-18T06:12:29;17.65;;;6.68;;
55489;SDS011;44029;52.956;4.772;2023-09-18T06:14:55;17.02;;;4.85;;
55489;SDS011;44029;52.956;4.772;2023-09-18T06:17:20;10.13;;;4.93;;
55489;SDS011;44029;52.956;4.772;2023-09-18T06:19:45;10.27;;;4.68;;
55489;SDS011;44029;52.956;4.772;2023-09-18T06:22:11;14.30;;;4.30;;
55489;SDS011;44029;52.956;4.772;2023-09-18T06:24:37;13.13;;;4.80;;
55489;SDS011;44029;52.956;4.772;2023-09-18T06:27:03;16.08;;;4.80;;
55489;SDS011;44029;52.956;4.772;2023-09-18T06:29:31;9.73;;;4.28;;
55489;SDS011;44029;52.956;4.772;2023-09-18T06:32:02;14.70;;;4.35;;
55489;SDS011;44029;52.956;4.772;2023-09-18T06:34:28;8.18;;;3.78;;
55489;SDS011;44029;52.956;4.772;2023-09-18T06:36:53;7.63;;;3.88;;
55489;SDS011;44029;52.956;4.772;2023-09-18T06:39:19;21.35;;;5.55;;
55489;SDS011;44029;52.956;4.772;2023-09-18T06:41:47;16.08;;;4.30;;
55489;SDS011;44029;52.956;4.772;2023-09-18T06:44:12;8.60;;;3.92;;
55489;SDS011;44029;52.956;4.772;2023-09-18T06:46:37;12.57;;;3.88;;
55489;SDS011;44029;52.956;4.772;2023-09-18T06:49:04;5.85;;;3.80;;
55489;SDS011;44029;52.956;4.772;2023-09-18T06:51:30;8.73;;;3.70;;
55489;SDS011;44029;52.956;4.772;2023-09-18T06:53:55;6.60;;;3.72;;
55489;SDS011;44029;52.956;4.772;2023-09-18T06:56:22;9.75;;;4.22;;
55489;SDS011;44029;52.956;4.772;2023-09-18T06:58:48;7.10;;;4.05;;
55489;SDS011;44029;52.956;4.772;2023-09-18T07:01:16;10.13;;;3.70;;
55489;SDS011;44029;52.956;4.772;2023-09-18T07:03:43;8.32;;;4.25;;
55489;SDS011;44029;52.956;4.772;2023-09-18T07:06:09;12.82;;;4.70;;
55489;SDS011;44029;52.956;4.772;2023-09-18T07:08:34;11.60;;;4.20;;
55489;SDS011;44029;52.956;4.772;2023-09-18T07:10:59;7.68;;;4.00;;
55489;SDS011;44029;52.956;4.772;2023-09-18T07:13:25;15.60;;;5.50;;
55489;SDS011;44029;52.956;4.772;2023-09-18T07:15:50;10.00;;;4.65;;
55489;SDS011;44029;52.956;4.772;2023-09-18T07:18:16;10.65;;;3.78;;
55489;SDS011;44029;52.956;4.772;2023-09-18T07:20:41;9.20;;;4.15;;
55489;SDS011;44029;52.956;4.772;2023-09-18T07:23:09;10.02;;;4.70;;
55489;SDS011;44029;52.956;4.772;2023-09-18T07:25:34;15.35;;;4.90;;
55489;SDS011;44029;52.956;4.772;2023-09-18T07:28:03;8.18;;;4.75;;
55489;SDS011;44029;52.956;4.772;2023-09-18T07:30:31;9.55;;;5.03;;
55489;SDS011;44029;52.956;4.772;2023-09-18T07:32:57;11.85;;;5.90;;
55489;SDS011;44029;52.956;4.772;2023-09-18T07:35:27;11.15;;;4.85;;
55489;SDS011;44029;52.956;4.772;2023-09-18T07:37:52;8.05;;;3.80;;
55489;SDS011;44029;52.956;4.772;2023-09-18T07:40:18;12.10;;;4.57;;
55489;SDS011;44029;52.956;4.772;2023-09-18T07:42:43;12.13;;;5.10;;
55489;SDS011;44029;52.956;4.772;2023-09-18T07:45:09;8.70;;;4.60;;
55489;SDS011;44029;52.956;4.772;2023-09-18T07:47:35;7.07;;;4.63;;
55489;SDS011;44029;52.956;4.772;2023-09-18T07:50:00;10.43;;;4.30;;
55489;SDS011;44029;52.956;4.772;2023-09-18T07:52:26;9.77;;;4.63;;
55489;SDS011;44029;52.956;4.772;2023-09-18T07:54:51;8.10;;;4.50;;
55489;SDS011;44029;52.956;4.772;2023-09-18T07:57:17;12.32;;;5.10;;
55489;SDS011;44029;52.956;4.772;2023-09-18T07:59:43;10.43;;;3.92;;
55489;SDS011;44029;52.956;4.772;2023-09-18T08:02:09;9.05;;;4.05;;
55489;SDS011;44029;52.956;4.772;2023-09-18T08:04:35;13.23;;;4.70;;
55489;SDS011;44029;52.956;4.772;2023-09-18T08:07:00;7.57;;;4.38;;
55489;SDS011;44029;52.956;4.772;2023-09-18T08:09:25;11.45;;;4.05;;
55489;SDS011;44029;52.956;4.772;2023-09-18T08:11:54;12.07;;;4.43;;
55489;SDS011;44029;52.956;4.772;2023-09-18T08:14:20;8.45;;;4.50;;
55489;SDS011;44029;52.956;4.772;2023-09-18T08:16:47;12.82;;;5.20;;
55489;SDS011;44029;52.956;4.772;2023-09-18T08:19:15;14.18;;;4.43;;
55489;SDS011;44029;52.956;4.772;2023-09-18T08:21:42;11.27;;;4.22;;
55489;SDS011;44029;52.956;4.772;2023-09-18T08:24:07;9.70;;;4.13;;
55489;SDS011;44029;52.956;4.772;2023-09-18T08:26:32;7.60;;;4.72;;
55489;SDS011;44029;52.956;4.772;2023-09-18T08:28:58;6.88;;;3.83;;
55489;SDS011;44029;52.956;4.772;2023-09-18T08:31:23;11.23;;;4.47;;
55489;SDS011;44029;52.956;4.772;2023-09-18T08:33:49;15.02;;;6.03;;
55489;SDS011;44029;52.956;4.772;2023-09-18T08:36:15;14.88;;;6.07;;
55489;SDS011;44029;52.956;4.772;2023-09-18T08:38:41;12.40;;;8.73;;
55489;SDS011;44029;52.956;4.772;2023-09-18T08:41:08;12.68;;;8.00;;
55489;SDS011;44029;52.956;4.772;2023-09-18T08:43:34;12.98;;;7.10;;
55489;SDS011;44029;52.956;4.772;2023-09-18T08:46:02;17.95;;;8.65;;
55489;SDS011;44029;52.956;4.772;2023-09-18T08:48:29;14.90;;;8.15;;
55489;SDS011;44029;52.956;4.772;2023-09-18T08:51:00;11.70;;;7.40;;
55489;SDS011;44029;52.956;4.772;2023-09-18T08:53:30;11.43;;;6.55;;
55489;SDS011;44029;52.956;4.772;2023-09-18T08:55:57;15.50;;;6.78;;
55489;SDS011;44029;52.956;4.772;2023-09-18T08:58:24;14.32;;;5.65;;
55489;SDS011;44029;52.956;4.772;2023-09-18T09:00:51;15.80;;;6.32;;
55489;SDS011;44029;52.956;4.772;2023-09-18T09:03:17;12.90;;;5.43;;
55489;SDS011;44029;52.956;4.772;2023-09-18T09:05:43;10.88;;;5.82;;
55489;SDS011;44029;52.956;4.772;2023-09-18T09:08:08;11.43;;;4.90;;
55489;SDS011;44029;52.956;4.772;2023-09-18T09:10:33;9.82;;;4.47;;
55489;SDS011;44029;52.956;4.772;2023-09-18T09:12:59;13.20;;;4.40;;
55489;SDS011;44029;52.956;4.772;2023-09-18T09:15:27;11.20;;;4.20;;
55489;SDS011;44029;52.956;4.772;2023-09-18T09:18:07;8.93;;;4.18;;
55489;SDS011;44029;52.956;4.772;2023-09-18T09:20:34;7.53;;;3.63;;
55489;SDS011;44029;52.956;4.772;2023-09-18T09:23:06;9.55;;;4.15;;
55489;SDS011;44029;52.956;4.772;2023-09-18T09:25:33;6.15;;;4.70;;
55489;SDS011;44029;52.956;4.772;2023-09-18T09:28:00;12.80;;;4.35;;
55489;SDS011;44029;52.956;4.772;2023-09-18T09:30:27;7.60;;;3.95;;
55489;SDS011;44029;52.956;4.772;2023-09-18T09:32:54;8.85;;;4.35;;
55489;SDS011;44029;52.956;4.772;2023-09-18T09:35:24;9.35;;;3.95;;
55489;SDS011;44029;52.956;4.772;2023-09-18T09:37:57;8.90;;;4.22;;
55489;SDS011;44029;52.956;4.772;2023-09-18T09:40:25;13.07;;;4.30;;
55489;SDS011;44029;52.956;4.772;2023-09-18T09:42:53;9.38;;;4.00;;
55489;SDS011;44029;52.956;4.772;2023-09-18T09:45:25;9.82;;;4.80;;
55489;SDS011;44029;52.956;4.772;2023-09-18T09:47:53;11.15;;;4.45;;
55489;SDS011;44029;52.956;4.772;2023-09-18T09:50:19;10.40;;;4.53;;
55489;SDS011;44029;52.956;4.772;2023-09-18T09:52:50;8.10;;;4.47;;
55489;SDS011;44029;52.956;4.772;2023-09-18T09:57:47;13.52;;;4.70;;
55489;SDS011;44029;52.956;4.772;2023-09-18T10:00:13;6.88;;;3.47;;
55489;SDS011;44029;52.956;4.772;2023-09-18T10:02:59;10.35;;;4.45;;
55489;SDS011;44029;52.956;4.772;2023-09-18T10:05:27;11.20;;;4.18;;
55489;SDS011;44029;52.956;4.772;2023-09-18T10:07:58;10.15;;;4.57;;
55489;SDS011;44029;52.956;4.772;2023-09-18T10:10:30;11.13;;;3.33;;
55489;SDS011;44029;52.956;4.772;2023-09-18T10:12:58;9.05;;;4.43;;
55489;SDS011;44029;52.956;4.772;2023-09-18T10:15:28;18.90;;;3.80;;
55489;SDS011;44029;52.956;4.772;2023-09-18T10:17:58;8.27;;;4.25;;
55489;SDS011;44029;52.956;4.772;2023-09-18T10:20:25;9.52;;;4.20;;
55489;SDS011;44029;52.956;4.772;2023-09-18T10:22:52;12.05;;;4.00;;
55489;SDS011;44029;52.956;4.772;2023-09-18T10:25:21;12.15;;;4.60;;
55489;SDS011;44029;52.956;4.772;2023-09-18T10:27:50;10.38;;;4.20;;
55489;SDS011;44029;52.956;4.772;2023-09-18T10:30:23;9.65;;;4.57;;
55489;SDS011;44029;52.956;4.772;2023-09-18T10:32:50;8.80;;;4.38;;
55489;SDS011;44029;52.956;4.772;2023-09-18T10:35:16;10.27;;;3.60;;
55489;SDS011;44029;52.956;4.772;2023-09-18T10:37:42;10.77;;;3.85;;
55489;SDS011;44029;52.956;4.772;2023-09-18T10:40:09;11.93;;;3.60;;
55489;SDS011;44029;52.956;4.772;2023-09-18T10:42:35;13.60;;;5.05;;
55489;SDS011;44029;52.956;4.772;2023-09-18T10:45:02;8.50;;;4.05;;
55489;SDS011;44029;52.956;4.772;2023-09-18T10:47:32;17.02;;;3.78;;
55489;SDS011;44029;52.956;4.772;2023-09-18T10:49:58;9.07;;;4.50;;
55489;SDS011;44029;52.956;4.772;2023-09-18T10:52:23;10.68;;;3.83;;
55489;SDS011;44029;52.956;4.772;2023-09-18T10:54:49;8.77;;;3.97;;
55489;SDS011;44029;52.956;4.772;2023-09-18T10:57:14;5.50;;;3.55;;
55489;SDS011;44029;52.956;4.772;2023-09-18T10:59:43;11.13;;;3.88;;
55489;SDS011;44029;52.956;4.772;2023-09-18T11:02:10;7.88;;;4.15;;
55489;SDS011;44029;52.956;4.772;2023-09-18T11:04:40;12.50;;;4.45;;
55489;SDS011;44029;52.956;4.772;2023-09-18T11:07:06;15.45;;;4.15;;
55489;SDS011;44029;52.956;4.772;2023-09-18T11:09:40;14.93;;;4.03;;
55489;SDS011;44029;52.956;4.772;2023-09-18T11:12:10;19.92;;;4.97;;
55489;SDS011;44029;52.956;4.772;2023-09-18T11:20:23;9.35;;;4.30;;
55489;SDS011;44029;52.956;4.772;2023-09-18T11:22:58;9.10;;;4.20;;
55489;SDS011;44029;52.956;4.772;2023-09-18T11:25:38;12.43;;;4.82;;
55489;SDS011;44029;52.956;4.772;2023-09-18T11:28:14;12.43;;;4.97;;
55489;SDS011;44029;52.956;4.772;2023-09-18T11:30:50;18.40;;;5.00;;
55489;SDS011;44029;52.956;4.772;2023-09-18T11:33:36;11.32;;;5.63;;
55489;SDS011;44029;52.956;4.772;2023-09-18T11:36:06;8.48;;;4.43;;
55489;SDS011;44029;52.956;4.772;2023-09-18T11:38:54;12.27;;;4.70;;
55489;SDS011;44029;52.956;4.772;2023-09-18T11:41:24;6.85;;;4.35;;
55489;SDS011;44029;52.956;4.772;2023-09-18T11:46:32;16.08;;;4.80;;
55489;SDS011;44029;52.956;4.772;2023-09-18T11:48:58;11.35;;;4.45;;
55489;SDS011;44029;52.956;4.772;2023-09-18T11:51:24;10.30;;;4.32;;
55489;SDS011;44029;52.956;4.772;2023-09-18T11:53:53;11.45;;;4.63;;
55489;SDS011;44029;52.956;4.772;2023-09-18T11:56:20;13.95;;;3.95;;
55489;SDS011;44029;52.956;4.772;2023-09-18T11:58:47;13.95;;;4.80;;
55489;SDS011;44029;52.956;4.772;2023-09-18T12:01:17;11.57;;;5.78;;
55489;SDS011;44029;52.956;4.772;2023-09-18T12:03:43;18.15;;;5.95;;
55489;SDS011;44029;52.956;4.772;2023-09-18T12:06:10;14.23;;;5.30;;
55489;SDS011;44029;52.956;4.772;2023-09-18T12:08:39;10.80;;;4.80;;
55489;SDS011;44029;52.956;4.772;2023-09-18T12:11:06;9.10;;;4.80;;
55489;SDS011;44029;52.956;4.772;2023-09-18T12:13:32;19.25;;;5.55;;
55489;SDS011;44029;52.956;4.772;2023-09-18T12:16:00;17.73;;;5.32;;
55489;SDS011;44029;52.956;4.772;2023-09-18T12:18:29;14.80;;;5.00;;
55489;SDS011;44029;52.956;4.772;2023-09-18T12:20:55;6.88;;;3.78;;
55489;SDS011;44029;52.956;4.772;2023-09-18T12:23:21;9.55;;;4.82;;
55489;SDS011;44029;52.956;4.772;2023-09-18T12:25:47;13.98;;;4.95;;
55489;SDS011;44029;52.956;4.772;2023-09-18T12:28:16;8.57;;;4.75;;
55489;SDS011;44029;52.956;4.772;2023-09-18T12:30:42;11.23;;;4.63;;
55489;SDS011;44029;52.956;4.772;2023-09-18T12:33:11;14.65;;;4.57;;
55489;SDS011;44029;52.956;4.772;2023-09-18T12:35:39;16.55;;;4.07;;
55489;SDS011;44029;52.956;4.772;2023-09-18T12:38:18;9.63;;;4.88;;
55489;SDS011;44029;52.956;4.772;2023-09-18T12:40:51;10.95;;;4.15;;
55489;SDS011;44029;52.956;4.772;2023-09-18T12:43:18;9.85;;;4.13;;
55489;SDS011;44029;52.956;4.772;2023-09-18T12:45:44;7.93;;;4.07;;
55489;SDS011;44029;52.956;4.772;2023-09-18T12:48:12;17.25;;;4.75;;
55489;SDS011;44029;52.956;4.772;2023-09-18T12:50:38;14.57;;;4.78;;
55489;SDS011;44029;52.956;4.772;2023-09-18T12:53:10;13.60;;;4.32;;
55489;SDS011;44029;52.956;4.772;2023-09-18T12:55:37;6.72;;;3.67;;
55489;SDS011;44029;52.956;4.772;2023-09-18T12:58:03;13.75;;;4.72;;
55489;SDS011;44029;52.956;4.772;2023-09-18T13:00:35;12.18;;;4.30;;
55489;SDS011;44029;52.956;4.772;2023-09-18T13:03:01;15.93;;;4.65;;
55489;SDS011;44029;52.956;4.772;2023-09-18T13:05:29;19.40;;;6.18;;
55489;SDS011;44029;52.956;4.772;2023-09-18T13:08:00;13.38;;;4.38;;
55489;SDS011;44029;52.956;4.772;2023-09-18T13:10:27;9.25;;;4.03;;
55489;SDS011;44029;52.956;4.772;2023-09-18T13:12:52;12.48;;;4.22;;
55489;SDS011;44029;52.956;4.772;2023-09-18T13:15:26;8.20;;;4.00;;
55489;SDS011;44029;52.956;4.772;2023-09-18T13:17:55;14.82;;;4.82;;
55489;SDS011;44029;52.956;4.772;2023-09-18T13:20:24;13.63;;;4.47;;
55489;SDS011;44029;52.956;4.772;2023-09-18T13:22:57;15.07;;;4.13;;
55489;SDS011;44029;52.956;4.772;2023-09-18T13:25:24;11.88;;;5.13;;
55489;SDS011;44029;52.956;4.772;2023-09-18T13:28:01;11.27;;;6.85;;
55489;SDS011;44029;52.956;4.772;2023-09-18T13:30:28;9.60;;;4.63;;
55489;SDS011;44029;52.956;4.772;2023-09-18T13:33:29;8.93;;;4.32;;
55489;SDS011;44029;52.956;4.772;2023-09-18T13:35:48;27.02;;;14.90;;
55489;SDS011;44029;52.956;4.772;2023-09-18T13:38:14;18.27;;;5.93;;
55489;SDS011;44029;52.956;4.772;2023-09-18T13:40:40;13.52;;;6.00;;
55489;SDS011;44029;52.956;4.772;2023-09-18T13:43:08;16.23;;;5.93;;
55489;SDS011;44029;52.956;4.772;2023-09-18T13:45:34;13.63;;;6.70;;
55489;SDS011;44029;52.956;4.772;2023-09-18T13:48:01;13.68;;;5.55;;
55489;SDS011;44029;52.956;4.772;2023-09-18T13:50:26;14.57;;;5.97;;
55489;SDS011;44029;52.956;4.772;2023-09-18T13:52:52;13.50;;;5.55;;
55489;SDS011;44029;52.956;4.772;2023-09-18T13:55:18;16.60;;;8.25;;
55489;SDS011;44029;52.956;4.772;2023-09-18T13:57:44;15.18;;;5.75;;
55489;SDS011;44029;52.956;4.772;2023-09-18T14:00:10;9.68;;;4.65;;
55489;SDS011;44029;52.956;4.772;2023-09-18T14:02:37;12.07;;;5.70;;
55489;SDS011;44029;52.956;4.772;2023-09-18T14:05:07;10.40;;;4.15;;
55489;SDS011;44029;52.956;4.772;2023-09-18T14:07:34;10.55;;;4.72;;
55489;SDS011;44029;52.956;4.772;2023-09-18T14:09:59;8.30;;;3.72;;
55489;SDS011;44029;52.956;4.772;2023-09-18T14:12:28;5.90;;;4.82;;
55489;SDS011;44029;52.956;4.772;2023-09-18T14:14:55;13.73;;;9.20;;
55489;SDS011;44029;52.956;4.772;2023-09-18T14:17:21;11.35;;;4.82;;
55489;SDS011;44029;52.956;4.772;2023-09-18T14:19:46;10.23;;;4.53;;
55489;SDS011;44029;52.956;4.772;2023-09-18T14:22:12;7.53;;;4.30;;
55489;SDS011;44029;52.956;4.772;2023-09-18T14:24:39;7.50;;;3.90;;
55489;SDS011;44029;52.956;4.772;2023-09-18T14:27:04;6.18;;;4.20;;
55489;SDS011;44029;52.956;4.772;2023-09-18T14:29:30;11.27;;;4.72;;
55489;SDS011;44029;52.956;4.772;2023-09-18T14:31:56;17.60;;;5.22;;
55489;SDS011;44029;52.956;4.772;2023-09-18T14:34:22;16.00;;;5.10;;
55489;SDS011;44029;52.956;4.772;2023-09-18T14:36:47;12.35;;;5.50;;
55489;SDS011;44029;52.956;4.772;2023-09-18T14:39:12;14.45;;;4.57;;
55489;SDS011;44029;52.956;4.772;2023-09-18T14:41:38;15.60;;;9.38;;
55489;SDS011;44029;52.956;4.772;2023-09-18T14:44:04;103.22;;;63.40;;